Time;durP1;ratioP1;P1;durP2;ratioP2;P2;SDS_P1;SDS_P2;PMS_P1;PMS_P2;Temp;Humidity;BMP_temperature;BMP_pressure;BME280_temperature;BME280_humidity;BME280_pressure;Samples;Min_cycle;Max_cycle;Signal;HPM_P1;HPM_P2
2022/08/23 00:01:49;;;;;;;2.10;1.15;;;26.30;43.70;;;;;;5028832;28;20029;-55
2022/08/23 00:04:21;;;;;;;2.65;0.90;;;26.30;43.70;;;;;;5029505;28;20025;-54
2022/08/23 00:06:48;;;;;;;1.73;1.00;;;26.30;43.80;;;;;;5022372;28;20098;-53
2022/08/23 00:09:15;;;;;;;2.10;0.90;;;26.30;43.70;;;;;;5030002;28;20025;-54
2022/08/23 00:11:53;;;;;;;1.73;0.95;;;26.30;43.80;;;;;;5026452;28;20048;-56
2022/08/23 00:14:23;;;;;;;1.80;0.80;;;26.30;43.80;;;;;;5025825;28;20033;-58
2022/08/23 00:16:50;;;;;;;2.15;1.00;;;26.30;43.80;;;;;;5025179;28;20037;-58
2022/08/23 00:19:17;;;;;;;2.45;1.08;;;26.30;43.90;;;;;;5025049;28;20053;-55
2022/08/23 00:21:45;;;;;;;1.42;0.80;;;26.30;43.90;;;;;;5023941;28;20033;-54
2022/08/23 00:24:13;;;;;;;2.28;1.05;;;26.30;44.00;;;;;;5024506;28;20329;-55
2022/08/23 00:26:56;;;;;;;2.60;1.10;;;26.30;44.00;;;;;;5024872;28;20025;-54
2022/08/23 00:29:26;;;;;;;2.60;0.93;;;26.30;44.00;;;;;;5027560;28;20061;-57
2022/08/23 00:31:52;;;;;;;2.05;1.00;;;26.30;44.00;;;;;;5029181;28;20126;-57
2022/08/23 00:34:20;;;;;;;2.80;1.05;;;26.30;44.00;;;;;;5028259;28;20094;-56
2022/08/23 00:36:48;;;;;;;3.03;1.13;;;26.30;44.10;;;;;;5017664;28;20029;-55
2022/08/23 00:39:14;;;;;;;1.15;0.70;;;26.20;44.00;;;;;;5028289;28;20025;-56
2022/08/23 00:41:41;;;;;;;2.38;0.93;;;26.30;44.10;;;;;;5026693;28;20045;-56
2022/08/23 00:49:46;;;;;;;1.58;0.90;;;26.20;44.10;;;;;;5016750;28;20445;-56
2022/08/23 00:52:45;;;;;;;1.63;0.93;;;26.20;44.10;;;;;;5026734;28;20091;-58
2022/08/23 00:55:12;;;;;;;2.10;0.93;;;26.20;44.10;;;;;;4999942;28;20107;-56
2022/08/23 00:57:38;;;;;;;2.92;1.00;;;26.20;44.10;;;;;;5023445;28;20412;-53
2022/08/23 01:00:07;;;;;;;3.20;1.23;;;26.20;44.10;;;;;;5028216;28;20087;-56
2022/08/23 01:02:33;;;;;;;1.85;0.80;;;26.20;44.20;;;;;;5027872;28;20029;-54
2022/08/23 01:05:00;;;;;;;2.15;1.10;;;26.20;44.20;;;;;;5024249;28;20052;-57
2022/08/23 01:07:28;;;;;;;1.25;1.00;;;26.20;44.20;;;;;;5024183;28;20137;-56
2022/08/23 01:10:00;;;;;;;2.63;1.10;;;26.20;44.20;;;;;;5026795;28;20033;-52
2022/08/23 01:12:34;;;;;;;1.83;1.00;;;26.20;44.20;;;;;;5027939;28;20033;-55
2022/08/23 01:15:10;;;;;;;1.85;0.80;;;26.20;44.20;;;;;;5022271;28;20460;-57
2022/08/23 01:17:46;;;;;;;1.35;0.60;;;26.20;44.20;;;;;;5026062;28;20436;-57
2022/08/23 01:20:18;;;;;;;2.35;1.10;;;26.20;44.20;;;;;;5041965;28;20025;-55
2022/08/23 01:22:56;;;;;;;2.17;1.02;;;26.20;44.30;;;;;;5024847;28;20026;-56
2022/08/23 01:25:25;;;;;;;3.92;1.10;;;26.20;44.30;;;;;;5022876;28;20033;-54
2022/08/23 01:27:52;;;;;;;2.55;1.00;;;26.20;44.30;;;;;;5013624;28;20026;-54
2022/08/23 01:30:24;;;;;;;3.55;1.20;;;26.10;44.20;;;;;;5025543;28;20407;-56
2022/08/23 01:32:55;;;;;;;1.60;1.00;;;26.10;44.20;;;;;;5019315;28;20405;-55
2022/08/23 01:35:29;;;;;;;3.67;1.10;;;26.10;44.20;;;;;;5022253;28;20898;-55
2022/08/23 01:37:55;;;;;;;1.90;0.90;;;26.10;44.20;;;;;;5026603;28;20050;-55
2022/08/23 01:40:22;;;;;;;1.75;0.90;;;26.10;44.20;;;;;;5018812;28;20037;-56
2022/08/23 01:42:48;;;;;;;2.20;1.20;;;26.10;44.30;;;;;;5021938;28;20029;-56
2022/08/23 01:45:15;;;;;;;2.15;0.85;;;26.10;44.30;;;;;;5023977;28;20032;-54
2022/08/23 01:47:42;;;;;;;4.07;1.20;;;26.10;44.30;;;;;;5016063;28;20071;-55
2022/08/23 01:50:11;;;;;;;2.67;1.20;;;26.10;44.30;;;;;;5015904;28;20026;-58
2022/08/23 01:52:37;;;;;;;2.05;0.95;;;26.10;44.30;;;;;;5037560;28;20051;-57
2022/08/23 01:55:05;;;;;;;1.52;0.90;;;26.10;44.30;;;;;;5010034;28;20037;-53
2022/08/23 01:57:32;;;;;;;1.90;0.93;;;26.10;44.30;;;;;;5014125;28;20022;-55
2022/08/23 02:00:00;;;;;;;1.98;0.90;;;26.10;44.30;;;;;;5020379;28;20453;-56
2022/08/23 02:02:27;;;;;;;2.47;0.90;;;26.10;44.30;;;;;;5028605;28;20044;-56
2022/08/23 02:04:53;;;;;;;2.72;1.02;;;26.10;44.40;;;;;;5027347;28;20029;-54
2022/08/23 02:07:19;;;;;;;2.05;1.00;;;26.10;44.40;;;;;;5021112;28;20136;-57
2022/08/23 02:09:45;;;;;;;2.25;1.08;;;26.00;44.40;;;;;;5024067;28;20367;-57
2022/08/23 02:12:11;;;;;;;2.05;1.10;;;26.00;44.40;;;;;;5021598;28;20033;-55
2022/08/23 02:14:40;;;;;;;1.50;0.95;;;26.00;44.40;;;;;;5022046;28;20066;-53
2022/08/23 02:17:10;;;;;;;2.15;1.10;;;26.00;44.40;;;;;;5020810;28;20175;-55
2022/08/23 02:19:38;;;;;;;1.90;1.02;;;26.00;44.40;;;;;;5025872;28;20052;-56
2022/08/23 02:22:06;;;;;;;2.08;1.13;;;26.00;44.40;;;;;;5029169;28;20449;-55
2022/08/23 02:24:33;;;;;;;1.52;0.80;;;26.00;44.50;;;;;;5030846;28;20045;-55
2022/08/23 02:27:02;;;;;;;2.88;1.10;;;26.00;44.60;;;;;;5044805;28;20068;-57
2022/08/23 02:29:30;;;;;;;3.00;1.23;;;26.10;44.60;;;;;;5025028;28;20062;-53
2022/08/23 02:31:59;;;;;;;2.28;1.20;;;26.00;44.50;;;;;;5028537;28;20099;-58
2022/08/23 02:34:26;;;;;;;1.67;1.00;;;26.00;44.60;;;;;;5029490;28;20041;-55
2022/08/23 02:36:53;;;;;;;1.40;1.00;;;26.00;44.60;;;;;;5018942;28;20113;-56
2022/08/23 02:39:19;;;;;;;1.83;0.90;;;26.00;44.60;;;;;;5029340;28;20100;-55
2022/08/23 02:41:46;;;;;;;2.17;1.10;;;26.00;44.60;;;;;;5022496;28;20033;-57
2022/08/23 02:44:13;;;;;;;2.00;1.00;;;26.00;44.70;;;;;;5030212;28;20025;-56
2022/08/23 02:46:41;;;;;;;2.17;1.08;;;26.00;44.70;;;;;;5017925;28;20029;-57
2022/08/23 02:49:07;;;;;;;1.77;1.10;;;26.00;44.70;;;;;;5030377;28;20061;-56
2022/08/23 02:51:33;;;;;;;3.55;1.30;;;26.00;44.70;;;;;;5029870;28;20029;-53
2022/08/23 02:54:00;;;;;;;1.50;1.10;;;26.00;45.40;;;;;;5027257;28;20436;-56
2022/08/23 02:56:26;;;;;;;1.63;0.90;;;26.00;44.80;;;;;;5018577;28;20421;-54
2022/08/23 02:58:52;;;;;;;1.30;1.02;;;26.00;44.80;;;;;;5028875;28;20120;-56
2022/08/23 03:01:24;;;;;;;2.15;0.90;;;26.00;44.80;;;;;;5014561;28;20396;-55
2022/08/23 03:03:52;;;;;;;2.70;1.10;;;26.00;44.80;;;;;;5024690;28;20361;-55
2022/08/23 03:06:18;;;;;;;2.65;1.30;;;25.90;44.80;;;;;;5019958;28;20056;-53
2022/08/23 03:08:44;;;;;;;3.15;1.52;;;25.90;44.80;;;;;;5021652;28;20117;-57
2022/08/23 03:11:16;;;;;;;1.70;1.10;;;25.90;44.80;;;;;;5025231;28;20029;-54
2022/08/23 03:13:46;;;;;;;;;;;25.90;44.80;;;;;;5029568;28;20030;-55
2022/08/23 03:16:14;;;;;;;2.47;1.40;;;26.00;44.90;;;;;;5029523;28;19913;-53
2022/08/23 03:18:45;;;;;;;2.53;1.33;;;25.90;44.90;;;;;;5026304;28;20033;-53
2022/08/23 03:21:12;;;;;;;1.73;1.00;;;25.90;44.90;;;;;;5015034;28;20361;-57
2022/08/23 03:23:39;;;;;;;2.35;0.98;;;25.90;44.90;;;;;;5026477;28;20026;-53
2022/08/23 03:26:07;;;;;;;2.78;1.23;;;25.90;44.90;;;;;;5014851;28;20091;-56
2022/08/23 03:28:36;;;;;;;2.80;1.20;;;25.90;45.00;;;;;;5018638;28;20441;-54
2022/08/23 03:31:03;;;;;;;2.60;1.38;;;25.90;45.00;;;;;;5016953;28;20014;-55
2022/08/23 03:33:31;;;;;;;2.90;1.10;;;25.90;45.60;;;;;;5028246;28;20455;-53
2022/08/23 03:36:01;;;;;;;2.20;1.08;;;25.90;45.00;;;;;;5018644;28;20046;-56
2022/08/23 03:38:28;;;;;;;2.17;1.10;;;25.90;45.00;;;;;;5029506;28;20025;-54
2022/08/23 03:40:54;;;;;;;2.28;1.42;;;25.90;45.00;;;;;;5020503;28;20021;-55
2022/08/23 03:43:23;;;;;;;2.17;1.17;;;25.90;45.00;;;;;;5019730;28;20584;-56
2022/08/23 03:45:49;;;;;;;1.85;1.10;;;25.90;45.00;;;;;;5026118;28;20089;-55
2022/08/23 03:48:15;;;;;;;3.30;1.30;;;25.90;45.00;;;;;;5026013;28;20116;-57
2022/08/23 03:50:41;;;;;;;2.15;1.30;;;25.80;45.00;;;;;;5019511;28;20022;-55
2022/08/23 03:53:08;;;;;;;1.45;1.17;;;25.90;45.00;;;;;;5026977;28;20029;-56
2022/08/23 03:55:33;;;;;;;2.08;1.05;;;25.80;45.00;;;;;;5019038;28;20052;-55
2022/08/23 03:57:59;;;;;;;2.00;1.00;;;25.80;45.00;;;;;;5027234;28;20022;-57
2022/08/23 04:00:25;;;;;;;2.75;1.40;;;25.80;45.00;;;;;;5015802;28;20424;-55
2022/08/23 04:02:52;;;;;;;2.53;1.30;;;25.80;45.00;;;;;;5016741;28;20079;-56
2022/08/23 04:05:20;;;;;;;1.95;1.13;;;25.80;45.00;;;;;;5014734;28;20029;-57
2022/08/23 04:07:49;;;;;;;1.35;1.00;;;25.80;45.00;;;;;;5015662;28;20033;-57
2022/08/23 04:10:16;;;;;;;2.22;1.10;;;25.80;45.10;;;;;;5014818;28;20061;-56
2022/08/23 04:12:44;;;;;;;2.47;1.13;;;25.80;45.10;;;;;;5015262;28;20040;-56
2022/08/23 04:15:13;;;;;;;2.75;1.10;;;25.80;45.10;;;;;;5031712;28;20044;-55
2022/08/23 04:17:41;;;;;;;1.88;1.00;;;25.80;45.20;;;;;;5014843;28;20044;-57
2022/08/23 04:20:08;;;;;;;2.10;1.17;;;25.80;45.20;;;;;;5014241;28;20026;-58
2022/08/23 04:22:40;;;;;;;2.03;1.17;;;25.80;45.20;;;;;;5024542;28;20034;-55
2022/08/23 04:25:07;;;;;;;2.33;1.30;;;25.80;45.30;;;;;;5015724;28;20277;-53
2022/08/23 04:27:33;;;;;;;3.15;1.30;;;25.80;45.30;;;;;;5015560;28;20038;-54
2022/08/23 04:29:58;;;;;;;1.88;1.00;;;25.80;45.30;;;;;;5034202;28;20032;-54
2022/08/23 04:32:25;;;;;;;1.95;1.23;;;25.80;45.40;;;;;;5020162;28;20451;-56
2022/08/23 04:34:51;;;;;;;1.58;1.00;;;25.80;45.40;;;;;;5017980;28;20465;-55
2022/08/23 04:37:18;;;;;;;2.33;1.23;;;25.80;45.40;;;;;;5014080;28;20048;-57
2022/08/23 04:42:36;;;;;;;2.63;1.10;;;25.80;45.40;;;;;;5015032;28;20038;-55
2022/08/23 04:45:03;;;;;;;3.03;1.05;;;25.70;45.30;;;;;;4997728;28;20453;-53
2022/08/23 04:47:31;;;;;;;2.47;1.27;;;25.70;45.40;;;;;;5014204;28;20052;-58
2022/08/23 04:50:00;;;;;;;2.58;1.45;;;25.70;45.40;;;;;;5022425;28;20035;-53
2022/08/23 04:52:25;;;;;;;2.88;1.40;;;25.70;45.40;;;;;;5015970;28;20037;-52
2022/08/23 04:54:51;;;;;;;2.20;1.20;;;25.70;45.40;;;;;;5013827;28;20099;-53
2022/08/23 04:57:27;;;;;;;1.60;1.13;;;25.70;46.00;;;;;;5013992;28;20373;-55
2022/08/23 04:59:53;;;;;;;2.25;1.00;;;25.70;45.40;;;;;;5014838;28;20026;-55
2022/08/23 05:02:20;;;;;;;2.38;1.13;;;25.70;45.50;;;;;;5026712;28;20086;-57
2022/08/23 05:04:46;;;;;;;2.13;1.20;;;25.70;45.50;;;;;;5034190;28;20127;-56
2022/08/23 05:07:14;;;;;;;2.78;1.30;;;25.70;45.50;;;;;;5033517;28;20052;-55
2022/08/23 05:09:40;;;;;;;2.05;1.20;;;25.70;45.60;;;;;;5023882;28;20026;-54
2022/08/23 05:12:06;;;;;;;1.85;1.02;;;25.70;45.60;;;;;;5014159;28;20038;-52
2022/08/23 05:14:33;;;;;;;2.60;1.38;;;25.70;45.60;;;;;;5028726;28;20457;-57
2022/08/23 05:16:58;;;;;;;2.72;1.23;;;25.70;45.70;;;;;;5017212;28;20034;-56
2022/08/23 05:19:25;;;;;;;3.67;1.55;;;25.70;45.70;;;;;;5022735;28;20445;-53
2022/08/23 05:21:51;;;;;;;2.15;1.15;;;25.70;45.70;;;;;;5019548;28;20083;-55
2022/08/23 05:24:17;;;;;;;4.30;1.73;;;25.70;45.70;;;;;;5032704;28;20033;-55
2022/08/23 05:26:45;;;;;;;2.67;1.48;;;25.70;45.70;;;;;;5033674;28;20026;-56
2022/08/23 05:29:11;;;;;;;2.10;1.30;;;25.70;45.80;;;;;;5029764;28;20022;-58
2022/08/23 05:31:44;;;;;;;3.03;1.50;;;25.70;45.80;;;;;;5013913;28;20034;-55
2022/08/23 05:34:10;;;;;;;3.88;1.63;;;25.70;45.80;;;;;;5016711;28;20034;-53
2022/08/23 05:36:45;;;;;;;2.25;1.48;;;25.60;45.80;;;;;;5017651;28;20038;-56
2022/08/23 05:39:10;;;;;;;2.63;1.40;;;25.70;45.90;;;;;;5020467;28;20130;-54
2022/08/23 05:41:39;;;;;;;3.13;1.52;;;25.70;45.90;;;;;;5036259;28;20052;-52
2022/08/23 05:44:09;;;;;;;1.90;1.38;;;25.60;45.90;;;;;;5027673;28;20029;-56
2022/08/23 05:46:36;;;;;;;3.00;1.55;;;25.70;46.00;;;;;;5017666;28;20037;-57
2022/08/23 05:49:16;;;;;;;1.95;1.30;;;25.70;46.10;;;;;;5023009;28;20116;-55
2022/08/23 05:51:42;;;;;;;3.13;1.40;;;25.70;46.10;;;;;;5036809;28;20509;-57
2022/08/23 05:54:09;;;;;;;2.85;1.40;;;25.60;46.10;;;;;;5037292;28;20099;-52
2022/08/23 05:56:38;;;;;;;1.65;1.00;;;25.70;46.20;;;;;;5023815;28;20030;-55
2022/08/23 05:59:08;;;;;;;3.45;1.63;;;25.60;46.10;;;;;;5023393;28;20029;-53
2022/08/23 06:01:35;;;;;;;3.40;1.50;;;25.60;46.10;;;;;;5037088;28;20397;-54
2022/08/23 06:04:11;;;;;;;3.83;1.42;;;25.60;46.20;;;;;;5035329;28;20033;-54
2022/08/23 06:06:40;;;;;;;1.83;1.30;;;25.70;46.30;;;;;;5025006;28;20049;-55
2022/08/23 06:09:09;;;;;;;3.78;1.30;;;25.70;46.30;;;;;;5026239;28;20044;-56
2022/08/23 06:11:36;;;;;;;2.92;1.30;;;25.60;46.30;;;;;;5017403;28;20471;-55
2022/08/23 06:14:06;;;;;;;1.70;1.30;;;25.70;46.40;;;;;;5016700;28;20049;-55
2022/08/23 06:16:42;;;;;;;2.47;1.40;;;25.70;46.40;;;;;;5027065;28;20025;-56
2022/08/23 06:19:11;;;;;;;3.78;1.70;;;25.70;46.50;;;;;;5016847;28;20037;-56
2022/08/23 06:21:46;;;;;;;3.90;1.90;;;25.70;46.50;;;;;;5020099;28;20483;-54
2022/08/23 06:24:13;;;;;;;2.78;1.60;;;25.70;46.60;;;;;;5034132;28;20025;-55
2022/08/23 06:26:48;;;;;;;3.70;1.58;;;25.70;46.60;;;;;;5035604;28;20460;-55
2022/08/23 06:29:17;;;;;;;3.78;1.67;;;25.70;46.60;;;;;;5034341;28;20029;-52
2022/08/23 06:31:47;;;;;;;2.05;1.60;;;25.70;46.70;;;;;;5025630;28;20035;-54
2022/08/23 06:34:32;;;;;;;3.30;1.80;;;25.70;46.70;;;;;;5034393;28;20116;-57
2022/08/23 06:37:16;;;;;;;3.30;2.10;;;25.70;46.70;;;;;;5032074;28;20056;-53
2022/08/23 06:40:20;;;;;;;2.65;1.67;;;25.70;46.70;;;;;;4985948;28;20042;-56
2022/08/23 06:43:06;;;;;;;3.22;1.83;;;25.70;46.70;;;;;;4970465;28;20045;-55
2022/08/23 06:45:50;;;;;;;;;;;25.70;46.70;;;;;;5011359;28;20042;-56
2022/08/23 06:48:16;;;;;;;3.67;1.75;;;25.80;46.80;;;;;;5022715;28;19974;-54
2022/08/23 06:50:42;;;;;;;3.17;1.65;;;25.80;46.80;;;;;;5026341;28;20053;-57
2022/08/23 06:53:26;;;;;;;2.78;1.55;;;25.80;46.90;;;;;;5023840;28;20057;-53
2022/08/23 06:56:19;;;;;;;2.50;1.70;;;25.80;46.90;;;;;;4989150;28;20473;-54
2022/08/23 06:59:04;;;;;;;2.53;1.60;;;25.80;46.90;;;;;;5018674;28;20025;-58
2022/08/23 07:01:55;;;;;;;3.60;1.85;;;25.80;46.90;;;;;;5025528;28;20072;-56
2022/08/23 07:04:41;;;;;;;2.90;1.70;;;25.80;46.90;;;;;;5032436;28;20096;-55
2022/08/23 07:07:22;;;;;;;3.20;1.50;;;25.80;46.80;;;;;;5015641;28;20377;-54
2022/08/23 07:09:49;;;;;;;3.08;1.80;;;25.80;46.80;;;;;;5028145;28;20137;-52
2022/08/23 07:12:18;;;;;;;2.92;1.65;;;25.80;46.80;;;;;;5015444;28;20029;-56
2022/08/23 07:14:45;;;;;;;1.70;1.25;;;25.80;46.80;;;;;;5034324;28;20051;-52
2022/08/23 07:17:13;;;;;;;2.80;1.65;;;25.90;46.80;;;;;;5032495;28;20416;-54
2022/08/23 07:19:42;;;;;;;2.17;1.25;;;25.90;46.80;;;;;;5025309;28;20026;-56
2022/08/23 07:22:09;;;;;;;3.17;1.45;;;25.90;46.80;;;;;;5017054;28;20030;-53
2022/08/23 07:24:36;;;;;;;4.72;2.20;;;25.90;46.80;;;;;;5015976;28;20107;-54
2022/08/23 07:27:07;;;;;;;3.88;1.83;;;25.90;46.80;;;;;;5016382;28;20037;-56
2022/08/23 07:29:39;;;;;;;3.35;1.70;;;25.90;46.90;;;;;;5015238;28;20057;-55
2022/08/23 07:32:06;;;;;;;4.25;2.13;;;25.90;47.00;;;;;;5017209;28;20026;-56
2022/08/23 07:34:34;;;;;;;2.55;1.55;;;25.90;47.00;;;;;;5015209;28;20173;-55
2022/08/23 07:37:01;;;;;;;4.47;1.80;;;25.90;47.00;;;;;;5018431;28;20473;-55
2022/08/23 07:39:30;;;;;;;5.35;2.25;;;25.90;47.00;;;;;;5017511;28;20061;-54
2022/08/23 07:42:03;;;;;;;3.25;1.85;;;25.90;47.10;;;;;;5024647;28;20033;-52
2022/08/23 07:44:33;;;;;;;3.83;1.98;;;25.90;47.10;;;;;;5045965;28;20025;-54
2022/08/23 07:47:00;;;;;;;4.75;1.80;;;25.90;47.20;;;;;;5015861;28;20045;-56
2022/08/23 07:49:26;;;;;;;3.47;1.98;;;25.90;47.20;;;;;;5022270;28;20106;-55
2022/08/23 07:51:54;;;;;;;4.20;2.03;;;25.90;47.20;;;;;;5018728;28;20030;-57
2022/08/23 07:54:24;;;;;;;4.65;1.83;;;26.00;47.30;;;;;;5018902;28;20345;-59
2022/08/23 07:57:27;;;;;;;3.38;2.08;;;25.90;47.30;;;;;;4992730;28;20046;-59
2022/08/23 08:00:14;;;;;;;2.88;1.83;;;25.90;47.30;;;;;;5021348;28;20269;-55
2022/08/23 08:02:48;;;;;;;3.38;1.80;;;26.00;47.50;;;;;;5029592;28;20117;-52
2022/08/23 08:05:20;;;;;;;3.38;1.90;;;26.00;47.30;;;;;;5031159;28;20036;-54
2022/08/23 08:07:47;;;;;;;4.00;1.95;;;26.00;47.30;;;;;;5024739;28;20026;-56
2022/08/23 08:10:13;;;;;;;4.05;2.28;;;26.00;47.20;;;;;;5017233;28;20061;-56
2022/08/23 08:12:39;;;;;;;3.15;1.92;;;26.00;47.20;;;;;;5021965;28;20087;-54
2022/08/23 08:15:16;;;;;;;4.45;1.80;;;26.00;47.20;;;;;;5034880;28;20107;-56
2022/08/23 08:17:46;;;;;;;2.67;1.65;;;26.00;47.20;;;;;;5034470;28;20068;-55
2022/08/23 08:20:18;;;;;;;4.75;1.83;;;26.00;47.20;;;;;;5035473;28;20358;-55
2022/08/23 08:23:03;;;;;;;2.92;1.63;;;26.00;47.10;;;;;;5034593;28;20033;-53
2022/08/23 08:26:19;;;;;;;3.45;1.75;;;26.00;47.10;;;;;;5034962;28;20025;-55
2022/08/23 08:28:55;;;;;;;3.65;1.77;;;26.00;47.10;;;;;;5015700;28;20034;-53
2022/08/23 08:31:23;;;;;;;2.53;1.70;;;26.00;47.00;;;;;;5016614;28;20029;-55
2022/08/23 08:33:49;;;;;;;2.47;1.73;;;26.00;47.00;;;;;;5034117;28;20033;-57
2022/08/23 08:36:35;;;;;;;2.90;1.48;;;26.10;47.00;;;;;;5034472;28;20037;-55
2022/08/23 08:39:06;;;;;;;3.28;1.60;;;26.10;47.00;;;;;;5014561;28;20427;-57
2022/08/23 08:41:57;;;;;;;4.35;1.60;;;26.10;47.00;;;;;;5026974;28;20076;-57
2022/08/23 08:44:23;;;;;;;3.28;1.77;;;26.10;46.90;;;;;;5029687;28;20109;-56
2022/08/23 08:46:53;;;;;;;3.25;1.65;;;26.10;46.90;;;;;;5017872;28;20075;-56
2022/08/23 08:49:31;;;;;;;2.88;1.65;;;26.10;46.80;;;;;;5034157;28;20042;-57
2022/08/23 08:52:09;;;;;;;2.33;1.70;;;26.10;46.80;;;;;;5034032;28;20025;-55
2022/08/23 08:54:36;;;;;;;3.75;1.73;;;26.10;46.80;;;;;;5032251;28;20519;-54
2022/08/23 08:57:05;;;;;;;3.13;1.80;;;26.10;46.70;;;;;;4998580;28;20034;-53
2022/08/23 08:59:46;;;;;;;2.72;1.58;;;26.10;46.70;;;;;;5013388;28;20369;-54
2022/08/23 09:02:18;;;;;;;3.58;1.40;;;26.10;46.70;;;;;;5014041;28;20033;-56
2022/08/23 09:04:48;;;;;;;3.72;1.67;;;26.20;46.70;;;;;;5017671;28;20091;-54
2022/08/23 09:07:49;;;;;;;3.60;1.58;;;26.10;46.60;;;;;;5032702;28;20054;-51
2022/08/23 09:10:18;;;;;;;2.97;1.77;;;26.20;46.60;;;;;;5012950;28;20053;-55
2022/08/23 09:13:18;;;;;;;3.05;1.70;;;26.20;46.60;;;;;;5024057;28;20116;-56
2022/08/23 09:16:01;;;;;;;3.63;1.60;;;26.20;46.50;;;;;;5021235;28;20049;-51
2022/08/23 09:18:32;;;;;;;3.22;1.50;;;26.20;46.50;;;;;;5035904;28;20030;-57
2022/08/23 09:21:00;;;;;;;3.42;1.40;;;26.10;46.50;;;;;;5029611;28;20057;-57
2022/08/23 09:23:34;;;;;;;1.60;1.17;;;26.20;46.50;;;;;;5028438;28;20065;-54
2022/08/23 09:26:13;;;;;;;1.98;1.40;;;26.20;46.60;;;;;;5032379;28;20037;-53
2022/08/23 09:28:39;;;;;;;2.65;1.40;;;26.20;46.50;;;;;;5033109;28;20040;-55
2022/08/23 09:31:06;;;;;;;2.22;1.50;;;26.20;46.50;;;;;;5018843;28;20080;-53
2022/08/23 09:33:42;;;;;;;3.40;1.80;;;26.20;46.50;;;;;;5024858;28;20064;-57
2022/08/23 09:36:21;;;;;;;3.47;1.70;;;26.20;46.40;;;;;;5023705;28;20048;-56
2022/08/23 09:38:51;;;;;;;2.80;1.48;;;26.30;46.30;;;;;;5032448;28;20349;-53
2022/08/23 09:41:22;;;;;;;2.80;1.73;;;26.30;46.00;;;;;;5025343;28;20040;-56
2022/08/23 09:43:54;;;;;;;3.97;2.03;;;26.30;45.70;;;;;;5026584;28;20052;-56
2022/08/23 09:46:29;;;;;;;1.95;1.23;;;26.40;45.40;;;;;;5024244;28;20342;-53
2022/08/23 09:48:57;;;;;;;2.13;1.35;;;26.40;45.60;;;;;;5030158;28;20095;-56
2022/08/23 09:51:32;;;;;;;2.03;1.33;;;26.50;44.70;;;;;;5045245;28;20035;-56
2022/08/23 09:54:21;;;;;;;3.20;1.70;;;26.50;44.40;;;;;;5030145;28;20025;-52
2022/08/23 09:57:08;;;;;;;3.40;2.03;;;26.60;44.30;;;;;;5029128;28;20033;-54
2022/08/23 09:59:54;;;;;;;3.42;1.80;;;26.50;44.10;;;;;;5023357;28;20170;-57
2022/08/23 10:02:31;;;;;;;3.97;1.77;;;26.60;44.00;;;;;;5023709;28;20068;-62
2022/08/23 10:05:48;;;;;;;3.42;1.85;;;26.60;44.10;;;;;;5029245;28;20449;-61
2022/08/23 10:08:32;;;;;;;2.38;1.77;;;26.60;44.00;;;;;;5025813;28;20033;-62
2022/08/23 10:11:02;;;;;;;2.75;1.42;;;26.70;43.80;;;;;;5022416;28;20400;-61
2022/08/23 10:13:31;;;;;;;2.20;1.42;;;26.80;43.50;;;;;;5020299;28;20044;-61
2022/08/23 10:16:09;;;;;;;1.98;1.35;;;26.90;43.20;;;;;;5020081;28;20338;-64
2022/08/23 10:18:42;;;;;;;1.85;1.40;;;27.00;42.90;;;;;;5021582;28;20084;-64
2022/08/23 10:21:29;;;;;;;2.67;1.58;;;27.10;42.80;;;;;;5017820;28;20026;-58
2022/08/23 10:24:43;;;;;;;3.75;1.88;;;27.30;42.90;;;;;;5020914;28;21729;-61
2022/08/23 10:30:56;;;;;;;9.05;1.85;;;27.50;43.10;;;;;;5025747;28;20046;-60
2022/08/23 10:33:36;;;;;;;3.65;1.55;;;27.60;43.00;;;;;;5024379;28;20442;-61
2022/08/23 10:36:15;;;;;;;11.68;2.00;;;27.70;42.90;;;;;;5025030;28;20452;-56
2022/08/23 10:38:55;;;;;;;9.88;1.95;;;27.70;42.70;;;;;;5027212;28;20033;-57
2022/08/23 10:42:06;;;;;;;9.05;2.13;;;27.80;42.40;;;;;;5019835;28;20048;-59
2022/08/23 10:45:02;;;;;;;7.97;1.95;;;27.80;42.00;;;;;;4985953;28;20045;-62
2022/08/23 10:47:41;;;;;;;4.88;1.80;;;27.90;41.70;;;;;;5016667;28;20046;-63
2022/08/23 10:50:18;;;;;;;8.07;2.00;;;27.90;41.30;;;;;;5022904;28;20036;-61
2022/08/23 10:53:10;;;;;;;4.65;1.65;;;27.90;41.10;;;;;;5020296;28;20044;-60
2022/08/23 10:55:53;;;;;;;3.05;1.63;;;27.90;41.20;;;;;;5009588;28;20119;-59
2022/08/23 10:58:24;;;;;;;5.25;1.48;;;28.00;41.60;;;;;;5015608;28;20053;-59
2022/08/23 11:00:54;;;;;;;5.40;1.70;;;28.00;41.80;;;;;;5019892;28;20083;-54
2022/08/23 11:03:43;;;;;;;4.13;1.75;;;28.00;42.00;;;;;;5020314;28;20030;-58
2022/08/23 11:06:34;;;;;;;5.30;1.70;;;28.10;42.20;;;;;;5021955;28;20143;-56
2022/08/23 11:09:27;;;;;;;5.80;1.92;;;28.10;42.10;;;;;;5021966;28;21994;-57
2022/08/23 11:12:17;;;;;;;5.45;1.65;;;28.10;42.20;;;;;;5015606;28;20160;-61
2022/08/23 11:15:02;;;;;;;4.78;1.85;;;28.10;42.20;;;;;;5024413;28;20048;-58
2022/08/23 11:17:31;;;;;;;4.30;1.77;;;28.10;42.20;;;;;;5037392;28;20044;-62
2022/08/23 11:20:02;;;;;;;4.88;2.40;;;28.20;42.30;;;;;;5000597;28;20042;-60
2022/08/23 11:22:30;;;;;;;4.13;1.98;;;28.20;42.20;;;;;;5019442;28;20072;-60
2022/08/23 11:25:04;;;;;;;3.45;1.58;;;28.20;42.20;;;;;;5021747;28;20404;-59
2022/08/23 11:27:39;;;;;;;7.35;1.80;;;28.20;42.20;;;;;;5039368;28;20459;-58
2022/08/23 11:30:31;;;;;;;3.63;1.58;;;28.30;42.20;;;;;;5023151;28;20045;-60
2022/08/23 11:33:17;;;;;;;5.03;1.70;;;28.30;42.20;;;;;;5008212;28;20038;-60
2022/08/23 11:35:46;;;;;;;7.88;1.80;;;28.30;42.10;;;;;;5027965;28;20081;-60
2022/08/23 11:38:16;;;;;;;4.10;1.75;;;28.40;42.10;;;;;;5026139;28;20377;-61
2022/08/23 11:40:49;;;;;;;3.67;1.63;;;28.40;41.90;;;;;;5018662;28;20033;-59
2022/08/23 11:43:38;;;;;;;3.17;1.67;;;28.50;41.90;;;;;;5023470;28;20115;-59
2022/08/23 11:46:25;;;;;;;8.02;2.30;;;28.50;41.80;;;;;;5028441;28;20044;-59
2022/08/23 11:49:16;;;;;;;8.68;2.63;;;28.50;42.20;;;;;;5009104;28;20041;-57
2022/08/23 11:51:59;;;;;;;5.78;1.92;;;28.60;42.20;;;;;;5021903;28;20468;-59
2022/08/23 11:54:55;;;;;;;4.75;2.00;;;28.60;42.20;;;;;;5024742;28;20044;-57
2022/08/23 11:57:49;;;;;;;6.93;1.90;;;28.60;42.30;;;;;;5026490;28;20120;-59
2022/08/23 12:00:21;;;;;;;6.95;1.73;;;28.60;42.30;;;;;;5025297;28;20036;-59
2022/08/23 12:03:23;;;;;;;4.80;1.77;;;28.60;42.30;;;;;;5028238;28;20122;-58
2022/08/23 12:05:52;;;;;;;2.80;1.70;;;28.60;42.20;;;;;;5005432;28;20052;-59
2022/08/23 12:08:40;;;;;;;3.30;1.65;;;28.60;42.00;;;;;;5029220;28;20099;-60
2022/08/23 12:11:09;;;;;;;6.43;1.67;;;28.70;41.90;;;;;;5027839;28;20083;-58
2022/08/23 12:13:55;;;;;;;3.35;1.63;;;28.70;41.90;;;;;;5028507;28;20033;-60
2022/08/23 12:16:22;;;;;;;5.55;1.92;;;28.80;42.00;;;;;;5023020;28;20432;-57
2022/08/23 12:18:48;;;;;;;2.65;1.73;;;28.80;41.90;;;;;;5028344;28;20121;-60
2022/08/23 12:21:17;;;;;;;3.55;1.85;;;28.80;41.90;;;;;;5029558;28;20108;-59
2022/08/23 12:23:50;;;;;;;3.28;1.65;;;28.80;41.80;;;;;;5025941;28;20108;-60
2022/08/23 12:26:37;;;;;;;4.20;1.13;;;28.80;41.60;;;;;;5027183;28;20056;-61
2022/08/23 12:29:40;;;;;;;2.40;1.30;;;28.90;42.20;;;;;;5025490;28;20099;-59
2022/08/23 12:32:32;;;;;;;3.25;1.38;;;29.00;41.40;;;;;;5024681;28;20037;-62
2022/08/23 12:35:08;;;;;;;3.55;1.20;;;29.10;41.30;;;;;;5011547;28;20049;-63
2022/08/23 12:37:51;;;;;;;4.38;1.48;;;29.20;41.30;;;;;;5024741;28;20163;-63
2022/08/23 12:40:41;;;;;;;2.15;0.90;;;29.20;41.30;;;;;;5026221;28;20029;-60
2022/08/23 12:43:21;;;;;;;2.92;1.50;;;29.30;41.30;;;;;;5023890;28;20029;-62
2022/08/23 12:46:01;;;;;;;3.72;1.25;;;29.30;41.30;;;;;;5023107;28;20071;-57
2022/08/23 12:48:30;;;;;;;4.38;1.50;;;29.40;41.50;;;;;;5020143;28;20341;-59
2022/08/23 12:51:01;;;;;;;2.92;1.50;;;29.40;41.50;;;;;;5018863;28;20044;-58
2022/08/23 12:53:31;;;;;;;6.88;1.75;;;29.10;41.70;;;;;;5020141;28;20018;-60
2022/08/23 12:56:06;;;;;;;2.78;1.63;;;28.60;42.50;;;;;;5022086;28;20116;-59
2022/08/23 12:58:36;;;;;;;4.72;1.80;;;28.10;43.40;;;;;;5026396;28;20057;-60
2022/08/23 13:01:07;;;;;;;3.70;1.48;;;27.70;44.70;;;;;;5017944;28;20568;-56
2022/08/23 13:03:43;;;;;;;4.70;2.00;;;27.20;46.00;;;;;;5018481;28;20457;-60
2022/08/23 13:06:13;;;;;;;6.15;2.05;;;26.90;46.60;;;;;;5019705;28;20054;-64
2022/08/23 13:08:45;;;;;;;4.15;1.80;;;26.70;47.00;;;;;;5023482;28;20028;-57
2022/08/23 13:11:13;;;;;;;5.60;2.10;;;26.50;46.90;;;;;;5022175;28;20361;-58
2022/08/23 13:13:42;;;;;;;4.85;1.42;;;26.50;46.90;;;;;;5025336;28;20034;-60
2022/08/23 13:16:26;;;;;;;4.63;1.90;;;26.30;46.90;;;;;;5019305;28;20064;-59
2022/08/23 13:18:54;;;;;;;5.20;1.92;;;26.20;47.20;;;;;;5024112;28;20040;-60
2022/08/23 13:21:30;;;;;;;3.28;1.95;;;26.10;47.20;;;;;;5022140;28;20029;-61
2022/08/23 13:24:17;;;;;;;5.63;1.67;;;26.00;47.10;;;;;;5025226;28;20033;-61
2022/08/23 13:26:45;;;;;;;4.20;1.77;;;25.90;47.00;;;;;;5024435;28;20289;-58
2022/08/23 13:29:14;;;;;;;2.85;1.30;;;25.80;47.00;;;;;;5022264;28;20076;-58
2022/08/23 13:31:55;;;;;;;4.03;1.63;;;25.80;46.90;;;;;;5022174;28;20044;-56